sensor_id;sensor_type;location;lat;lon;timestamp;pressure;altitude;pressure_sealevel;temperature;humidity
46382;BME280;66809;52.974;-2.514;2023-02-17T00:01:47;1009.0818897956394;;;7.700780015509988;47.852988426824865
46382;BME280;66809;52.974;-2.514;2023-02-17T00:03:47;1009.0753040987747;;;7.7063744289335165;47.85172045013683
46382;BME280;66809;52.974;-2.514;2023-02-17T00:05:47;1009.068103018686;;;7.719869861354633;47.85210389714287
46382;BME280;66809;52.974;-2.514;2023-02-17T00:07:47;1009.0611739553882;;;7.7310208393035085;47.84576998296579
46382;BME280;66809;52.974;-2.514;2023-02-17T00:09:47;1009.0546590504666;;;7.745277513524354;47.84641361121284
46382;BME280;66809;52.974;-2.514;2023-02-17T00:11:48;1009.0455506967536;;;7.749091641355946;47.85131663548489
46382;BME280;66809;52.974;-2.514;2023-02-17T00:13:48;1009.0359744608228;;;7.748442535601931;47.85842356127375
46382;BME280;66809;52.974;-2.514;2023-02-17T00:15:47;1009.0211929896608;;;7.74870407490483;47.86309365917591
46382;BME280;66809;52.974;-2.514;2023-02-17T00:17:49;1009.0091019852786;;;7.758512293587419;47.863495873678374
46382;BME280;66809;52.974;-2.514;2023-02-17T00:19:47;1008.9968900012035;;;7.764914664901964;47.86464082661107
46382;BME280;66809;52.974;-2.514;2023-02-17T00:21:47;1008.9882242582652;;;7.7697338230540645;47.86879185823177
46382;BME280;66809;52.974;-2.514;2023-02-17T00:23:48;1008.9747270787759;;;7.775047253906369;47.862507160788795
46382;BME280;66809;52.974;-2.514;2023-02-17T00:25:47;1008.9641816470115;;;7.779974531602528;47.86353935961915
46382;BME280;66809;52.974;-2.514;2023-02-17T00:27:47;1008.9514173196361;;;7.788868097370158;47.86369514556251
46382;BME280;66809;52.974;-2.514;2023-02-17T00:29:47;1008.9409143223519;;;7.782322326949361;47.872151364039645
46382;BME280;66809;52.974;-2.514;2023-02-17T00:31:47;1008.9298189944626;;;7.77214340415994;47.89564592729921
46382;BME280;66809;52.974;-2.514;2023-02-17T00:33:48;1008.920438420159;;;7.768340339937875;47.914980259063846
46382;BME280;66809;52.974;-2.514;2023-02-17T00:35:48;1008.9123760664063;;;7.766749398774673;47.91876853125336
46382;BME280;66809;52.974;-2.514;2023-02-17T00:37:47;1008.90896074425;;;7.767926641376687;47.91384560303739
46382;BME280;66809;52.974;-2.514;2023-02-17T00:39:47;1008.9068062102888;;;7.7777701453071755;47.90161593707121
46382;BME280;66809;52.974;-2.514;2023-02-17T00:41:48;1008.9062063797903;;;7.779966826165498;47.89280118017743
46382;BME280;66809;52.974;-2.514;2023-02-17T00:43:48;1008.9051922130288;;;7.787133785743295;47.873365278184714
46382;BME280;66809;52.974;-2.514;2023-02-17T00:45:47;1008.9042768188006;;;7.791616477681186;47.85794193915997
46382;BME280;66809;52.974;-2.514;2023-02-17T00:47:48;1008.9035214311632;;;7.7846687405434345;47.84257856868391
46382;BME280;66809;52.974;-2.514;2023-02-17T00:49:47;1008.9009453884606;;;7.790438869693516;47.841584156513285
46382;BME280;66809;52.974;-2.514;2023-02-17T00:51:48;1008.8993615705132;;;7.784198680011502;47.84560982812477
46382;BME280;66809;52.974;-2.514;2023-02-17T00:53:48;1008.8989394314796;;;7.780959402717974;47.852651293062685
46382;BME280;66809;52.974;-2.514;2023-02-17T00:55:47;1008.8976517890522;;;7.773931466837236;47.851790429223975
46382;BME280;66809;52.974;-2.514;2023-02-17T00:57:47;1008.89603123764;;;7.775851155059455;47.845330594590315
46382;BME280;66809;52.974;-2.514;2023-02-17T00:59:47;1008.8936711692627;;;7.773688712966089;47.834964562884956
46382;BME280;66809;52.974;-2.514;2023-02-17T01:01:48;1008.8898833990372;;;7.77910291514103;47.82390900798359
46382;BME280;66809;52.974;-2.514;2023-02-17T01:03:47;1008.8884410018803;;;7.7773927859893375;47.81428623648795
46382;BME280;66809;52.974;-2.514;2023-02-17T01:05:48;1008.8857230040398;;;7.774040995629222;47.80205020095641
46382;BME280;66809;52.974;-2.514;2023-02-17T01:07:47;1008.8866309981183;;;7.778251072651172;47.785618115728944
46382;BME280;66809;52.974;-2.514;2023-02-17T01:09:47;1008.8879644160055;;;7.772377200498464;47.766464318707044
46382;BME280;66809;52.974;-2.514;2023-02-17T01:11:48;1008.8928993266998;;;7.775127628973171;47.753336444709
46382;BME280;66809;52.974;-2.514;2023-02-17T01:13:48;1008.9029382683427;;;7.775935202472282;47.74022863704737
46382;BME280;66809;52.974;-2.514;2023-02-17T01:15:49;1008.9195765876935;;;7.783430908099396;47.72065084614244
46382;BME280;66809;52.974;-2.514;2023-02-17T01:17:47;1008.9353884603901;;;7.79270625970019;47.684722864806275
46382;BME280;66809;52.974;-2.514;2023-02-17T01:19:47;1008.9525979164926;;;7.797508949608564;47.638671495486506
46382;BME280;66809;52.974;-2.514;2023-02-17T01:21:48;1008.969774294604;;;7.802033615402835;47.58978329456526
46382;BME280;66809;52.974;-2.514;2023-02-17T01:23:48;1008.9893001006527;;;7.8100534633081775;47.5468416239128
46382;BME280;66809;52.974;-2.514;2023-02-17T01:25:48;1009.0087466118924;;;7.813547611196214;47.49596342103037
46382;BME280;66809;52.974;-2.514;2023-02-17T01:27:48;1009.0306813394607;;;7.81606093759403;47.447901941123774
46382;BME280;66809;52.974;-2.514;2023-02-17T01:29:48;1009.0535921883495;;;7.824540805034422;47.39567712853186
46382;BME280;66809;52.974;-2.514;2023-02-17T01:31:47;1009.0764367535869;;;7.832734913148593;47.33643924280744
46382;BME280;66809;52.974;-2.514;2023-02-17T01:33:48;1009.1016226199041;;;7.836140759843443;47.279191847348315
46382;BME280;66809;52.974;-2.514;2023-02-17T01:35:48;1009.1228315431518;;;7.836434234377611;47.22863761620312
46382;BME280;66809;52.974;-2.514;2023-02-17T01:37:47;1009.1452745106183;;;7.842327929853787;47.175810775798645
46382;BME280;66809;52.974;-2.514;2023-02-17T01:39:47;1009.166057773748;;;7.834793607620014;47.12764250441612
46382;BME280;66809;52.974;-2.514;2023-02-17T01:41:48;1009.1877128065025;;;7.840046292413951;47.069341402651865
46382;BME280;66809;52.974;-2.514;2023-02-17T01:44:13;1009.2050868830385;;;7.8318168995612485;47.016288817964735
46382;BME280;66809;52.974;-2.514;2023-02-17T01:45:50;1009.2223867248766;;;7.828129677764043;46.96623979545442
46382;BME280;66809;52.974;-2.514;2023-02-17T01:47:50;1009.2367526146035;;;7.830265981915977;46.92056614260567
46382;BME280;66809;52.974;-2.514;2023-02-17T01:49:47;1009.2486752380568;;;7.818391342062165;46.86711260449063
46382;BME280;66809;52.974;-2.514;2023-02-17T01:51:51;1009.2596706567155;;;7.81459601807978;46.822553547043455
46382;BME280;66809;52.974;-2.514;2023-02-17T01:53:51;1009.2625971430451;;;7.811148231190297;46.77049006011368
46382;BME280;66809;52.974;-2.514;2023-02-17T01:55:48;1009.2634801837307;;;7.807237062871596;46.724857995165124
46382;BME280;66809;52.974;-2.514;2023-02-17T01:57:47;1009.262310903957;;;7.7993871609425565;46.67908275036234
46382;BME280;66809;52.974;-2.514;2023-02-17T01:59:47;1009.2580442313133;;;7.7910154310979145;46.63021781523212
46382;BME280;66809;52.974;-2.514;2023-02-17T02:01:51;1009.2484508918908;;;7.778933336456622;46.59133091175401
46382;BME280;66809;52.974;-2.514;2023-02-17T02:03:49;1009.2404908885958;;;7.757687388831383;46.56292759450376
46382;BME280;66809;52.974;-2.514;2023-02-17T02:05:48;1009.2358221310698;;;7.747405132929947;46.53695396973451
46382;BME280;66809;52.974;-2.514;2023-02-17T02:07:48;1009.2227527369389;;;7.73229560629747;46.51296648247139
46382;BME280;66809;52.974;-2.514;2023-02-17T02:09:51;1009.2085174583532;;;7.720820276491555;46.48653904703538
46382;BME280;66809;52.974;-2.514;2023-02-17T02:11:48;1009.1922683907894;;;7.697751699552849;46.46621373060497
46382;BME280;66809;52.974;-2.514;2023-02-17T02:13:47;1009.1731976957836;;;7.676255290863185;46.44781767903333
46382;BME280;66809;52.974;-2.514;2023-02-17T02:15:58;1009.1504394292573;;;7.661486634346589;46.42961207324749
46382;BME280;66809;52.974;-2.514;2023-02-17T02:18:00;1009.1224149323185;;;7.639322652181298;46.42211641988596
46382;BME280;66809;52.974;-2.514;2023-02-17T02:20:07;1009.0878710709719;;;7.624442508986209;46.42516269934371
46382;BME280;66809;52.974;-2.514;2023-02-17T02:22:05;1009.0529361209173;;;7.608338133193512;46.43654523141192
46382;BME280;66809;52.974;-2.514;2023-02-17T02:23:53;1009.0131861430458;;;7.584810904271482;46.44822558395023
46382;BME280;66809;52.974;-2.514;2023-02-17T02:26:17;1008.9695460871327;;;7.562446159555095;46.46229090180657
46382;BME280;66809;52.974;-2.514;2023-02-17T02:27:55;1008.924163838868;;;7.529836353650103;46.484187924249866
46382;BME280;66809;52.974;-2.514;2023-02-17T02:30:03;1008.8770774931394;;;7.498698340872321;46.51580203106739
46382;BME280;66809;52.974;-2.514;2023-02-17T02:31:58;1008.8318549436713;;;7.468726527931327;46.54848847467811
46382;BME280;66809;52.974;-2.514;2023-02-17T02:33:50;1008.7866029253288;;;7.434294166186896;46.58565422048614
46382;BME280;66809;52.974;-2.514;2023-02-17T02:35:55;1008.7471421263976;;;7.407913521103455;46.619267025355576
46382;BME280;66809;52.974;-2.514;2023-02-17T02:37:52;1008.708412585423;;;7.3737624712362395;46.656497505402065
46382;BME280;66809;52.974;-2.514;2023-02-17T02:39:50;1008.6743057171485;;;7.348625203060465;46.69004382706008
46382;BME280;66809;52.974;-2.514;2023-02-17T02:41:52;1008.6427017836363;;;7.31512288109752;46.72914057294375
46382;BME280;66809;52.974;-2.514;2023-02-17T02:43:47;1008.6146985051291;;;7.2953188726675835;46.763775786501256
46382;BME280;66809;52.974;-2.514;2023-02-17T02:45:47;1008.5901051705017;;;7.275240177969295;46.79667999592137
46382;BME280;66809;52.974;-2.514;2023-02-17T02:47:51;1008.5731540928211;;;7.2652050963257135;46.82300279812808
46382;BME280;66809;52.974;-2.514;2023-02-17T02:49:47;1008.5570854738042;;;7.257393830032516;46.83430860383334
46382;BME280;66809;52.974;-2.514;2023-02-17T02:51:53;1008.5434209139985;;;7.250736619526494;46.829076476355766
46382;BME280;66809;52.974;-2.514;2023-02-17T02:54:02;1008.5316591374542;;;7.24852784627995;46.8236918473533
46382;BME280;66809;52.974;-2.514;2023-02-17T02:55:52;1008.5244937839511;;;7.248859934545441;46.814623049463265
46382;BME280;66809;52.974;-2.514;2023-02-17T02:57:52;1008.5197508054474;;;7.245012826226069;46.804799365354185
46382;BME280;66809;52.974;-2.514;2023-02-17T02:59:55;1008.5186966187368;;;7.245453036711378;46.79709515623079
46382;BME280;66809;52.974;-2.514;2023-02-17T03:01:52;1008.5246137094824;;;7.248487109843854;46.77825951690002
46382;BME280;66809;52.974;-2.514;2023-02-17T03:03:54;1008.5302968038304;;;7.267532000192204;46.74866875032943
46382;BME280;66809;52.974;-2.514;2023-02-17T03:05:53;1008.5310120415478;;;7.272300026268679;46.72080795849549
46382;BME280;66809;52.974;-2.514;2023-02-17T03:07:52;1008.5340667260408;;;7.283992640278651;46.691336297527606
46382;BME280;66809;52.974;-2.514;2023-02-17T03:09:48;1008.5328930632459;;;7.2905991325873005;46.664683780816695
46382;BME280;66809;52.974;-2.514;2023-02-17T03:11:48;1008.530510491852;;;7.300951258800151;46.63281088235767
46382;BME280;66809;52.974;-2.514;2023-02-17T03:13:47;1008.5251537161599;;;7.310291665106329;46.6030837866815
46382;BME280;66809;52.974;-2.514;2023-02-17T03:15:47;1008.5237634371259;;;7.311650908970834;46.58554137259333
46382;BME280;66809;52.974;-2.514;2023-02-17T03:17:47;1008.52522284885;;;7.310379944515039;46.57102818214397
46382;BME280;66809;52.974;-2.514;2023-02-17T03:19:47;1008.5307152275344;;;7.3117347946606674;46.55732038778467
46382;BME280;66809;52.974;-2.514;2023-02-17T03:21:50;1008.5392109956877;;;7.314364598708675;46.532416515998214
46382;BME280;66809;52.974;-2.514;2023-02-17T03:23:47;1008.5513000833156;;;7.314765789468529;46.50586468907032
46382;BME280;66809;52.974;-2.514;2023-02-17T03:25:48;1008.566664779254;;;7.319608094606655;46.47977338801288
46382;BME280;66809;52.974;-2.514;2023-02-17T03:27:47;1008.5788695521818;;;7.325647455388828;46.45224014608216
46382;BME280;66809;52.974;-2.514;2023-02-17T03:29:47;1008.5895037577039;;;7.331415422311167;46.412205895776786
46382;BME280;66809;52.974;-2.514;2023-02-17T03:31:48;1008.6000202259688;;;7.342539800702814;46.367806728228196
46382;BME280;66809;52.974;-2.514;2023-02-17T03:33:47;1008.6047271930562;;;7.3596267234494785;46.3255369246245
46382;BME280;66809;52.974;-2.514;2023-02-17T03:35:47;1008.6055923004203;;;7.364955565483664;46.29284052486901
46382;BME280;66809;52.974;-2.514;2023-02-17T03:37:47;1008.6027566300183;;;7.362499665828715;46.27254567150454
46382;BME280;66809;52.974;-2.514;2023-02-17T03:39:48;1008.5972620593893;;;7.364866634475729;46.25254476376155
46382;BME280;66809;52.974;-2.514;2023-02-17T03:41:47;1008.5857267771578;;;7.363650154036533;46.240990056661715
46382;BME280;66809;52.974;-2.514;2023-02-17T03:43:47;1008.5743855100546;;;7.359159142500954;46.23164340423344
46382;BME280;66809;52.974;-2.514;2023-02-17T03:45:47;1008.5630703889813;;;7.349598128042487;46.224627904334824
46382;BME280;66809;52.974;-2.514;2023-02-17T03:47:48;1008.5456596261824;;;7.334063521700984;46.21633182859242
46382;BME280;66809;52.974;-2.514;2023-02-17T03:49:47;1008.5339081992216;;;7.3184830011688335;46.223745006846976
46382;BME280;66809;52.974;-2.514;2023-02-17T03:51:47;1008.5172083785783;;;7.304010610984942;46.239896178320954
46382;BME280;66809;52.974;-2.514;2023-02-17T03:53:47;1008.5047280678511;;;7.277787864091995;46.27049449265386
46382;BME280;66809;52.974;-2.514;2023-02-17T03:55:47;1008.49098313088;;;7.24606966949391;46.303521073638954
46382;BME280;66809;52.974;-2.514;2023-02-17T03:57:47;1008.4734690242519;;;7.219600192024841;46.34711329291294
46382;BME280;66809;52.974;-2.514;2023-02-17T03:59:47;1008.4514748195112;;;7.194945616779648;46.39325393292309
46382;BME280;66809;52.974;-2.514;2023-02-17T04:01:47;1008.4282633941475;;;7.17297132402778;46.44694876241457
46382;BME280;66809;52.974;-2.514;2023-02-17T04:03:47;1008.4018313622674;;;7.136588849224643;46.504730378784785
46382;BME280;66809;52.974;-2.514;2023-02-17T04:05:48;1008.3756024310698;;;7.101662703253195;46.569405562476796
46382;BME280;66809;52.974;-2.514;2023-02-17T04:07:48;1008.3553816836469;;;7.0644152644970095;46.64005156237008
46382;BME280;66809;52.974;-2.514;2023-02-17T04:09:48;1008.3426058991164;;;7.037254442825367;46.708277838400925
46382;BME280;66809;52.974;-2.514;2023-02-17T04:11:47;1008.331183507603;;;7.011530115652005;46.78204096730992
46382;BME280;66809;52.974;-2.514;2023-02-17T04:13:47;1008.3240165736563;;;6.988589377935151;46.84445900366844
46382;BME280;66809;52.974;-2.514;2023-02-17T04:15:48;1008.314818141038;;;6.964648011821329;46.90492559593123
46382;BME280;66809;52.974;-2.514;2023-02-17T04:17:47;1008.305058798732;;;6.941413828867318;46.96955767998724
46382;BME280;66809;52.974;-2.514;2023-02-17T04:19:47;1008.297519395406;;;6.911178891227451;47.02763912202208
46382;BME280;66809;52.974;-2.514;2023-02-17T04:21:48;1008.2866064259553;;;6.883406923718011;47.092071236593135
46382;BME280;66809;52.974;-2.514;2023-02-17T04:23:48;1008.2742970343533;;;6.855964391234209;47.16262016615619
46382;BME280;66809;52.974;-2.514;2023-02-17T04:25:47;1008.262860080967;;;6.832838353084437;47.22812151281607
46382;BME280;66809;52.974;-2.514;2023-02-17T04:27:47;1008.2522142889451;;;6.815841047653423;47.295472011579506
46382;BME280;66809;52.974;-2.514;2023-02-17T04:29:47;1008.2448490988908;;;6.795399308095327;47.366977316723805
46382;BME280;66809;52.974;-2.514;2023-02-17T04:31:48;1008.2372773198863;;;6.772002996783768;47.43975495235382
46382;BME280;66809;52.974;-2.514;2023-02-17T04:33:47;1008.2327297918781;;;6.746641320911297;47.51468402627926
46382;BME280;66809;52.974;-2.514;2023-02-17T04:35:47;1008.2335247601562;;;6.724136477367483;47.58378577595792
46382;BME280;66809;52.974;-2.514;2023-02-17T04:37:48;1008.2384458672185;;;6.712919271881264;47.63903167618815
46382;BME280;66809;52.974;-2.514;2023-02-17T04:39:47;1008.23872616721;;;6.694801724356789;47.70175217331303
46382;BME280;66809;52.974;-2.514;2023-02-17T04:41:47;1008.2433647117782;;;6.683642544302614;47.75236645797726
46382;BME280;66809;52.974;-2.514;2023-02-17T04:43:47;1008.248904115831;;;6.673487352338308;47.81194028247375
46382;BME280;66809;52.974;-2.514;2023-02-17T04:45:48;1008.2517982433345;;;6.668096542731589;47.86435781450732
46382;BME280;66809;52.974;-2.514;2023-02-17T04:47:48;1008.2542134887552;;;6.657099084474452;47.91292832699312
46382;BME280;66809;52.974;-2.514;2023-02-17T04:49:47;1008.2515981198262;;;6.655295674769521;47.957168065811075
46382;BME280;66809;52.974;-2.514;2023-02-17T04:51:47;1008.2510464244084;;;6.656511933272384;48.00182630749915
46382;BME280;66809;52.974;-2.514;2023-02-17T04:53:48;1008.2502592651688;;;6.664813878677752;48.04416972108002
46382;BME280;66809;52.974;-2.514;2023-02-17T04:55:48;1008.2462397347587;;;6.67276519678388;48.0837524274759
46382;BME280;66809;52.974;-2.514;2023-02-17T04:57:47;1008.2435224495782;;;6.677966697345039;48.11726431140805
46382;BME280;66809;52.974;-2.514;2023-02-17T04:59:48;1008.2441882409234;;;6.684326640596401;48.14543305490565
46382;BME280;66809;52.974;-2.514;2023-02-17T05:01:48;1008.2470466516885;;;6.693266043547281;48.17236666923479
46382;BME280;66809;52.974;-2.514;2023-02-17T05:03:47;1008.2527474217569;;;6.698331842911415;48.20066358502133
46382;BME280;66809;52.974;-2.514;2023-02-17T05:05:48;1008.2620907475032;;;6.71420247898332;48.22168797246223
46382;BME280;66809;52.974;-2.514;2023-02-17T05:07:47;1008.270590362366;;;6.729609740570358;48.24650488549306
46382;BME280;66809;52.974;-2.514;2023-02-17T05:09:47;1008.2766987545497;;;6.737545163148183;48.279173891794464
46382;BME280;66809;52.974;-2.514;2023-02-17T05:11:48;1008.2835165397878;;;6.740460226361795;48.29776334125064
46382;BME280;66809;52.974;-2.514;2023-02-17T05:13:47;1008.28806654927;;;6.75161612172128;48.318203869733175
46382;BME280;66809;52.974;-2.514;2023-02-17T05:15:47;1008.2891164391037;;;6.7618062015594536;48.32704263319311
46382;BME280;66809;52.974;-2.514;2023-02-17T05:17:47;1008.2910851428784;;;6.773626258600897;48.3470050293023
46382;BME280;66809;52.974;-2.514;2023-02-17T05:19:48;1008.2945847962942;;;6.787342187716976;48.379496474883545
46382;BME280;66809;52.974;-2.514;2023-02-17T05:21:47;1008.3009960432263;;;6.80140564805535;48.4077084236621
46382;BME280;66809;52.974;-2.514;2023-02-17T05:23:47;1008.3043444045177;;;6.811194564870017;48.43777145277093
46382;BME280;66809;52.974;-2.514;2023-02-17T05:25:48;1008.3035543902101;;;6.82178666295716;48.46725882073345
46382;BME280;66809;52.974;-2.514;2023-02-17T05:27:47;1008.303300584935;;;6.837595491911759;48.487119919962566
46382;BME280;66809;52.974;-2.514;2023-02-17T05:29:47;1008.2997091374407;;;6.847585189546663;48.505599475827
46382;BME280;66809;52.974;-2.514;2023-02-17T05:31:47;1008.2923685614688;;;6.8575285480089585;48.52505162077013
46382;BME280;66809;52.974;-2.514;2023-02-17T05:33:48;1008.2833761021941;;;6.872287048859099;48.54139594919078
46382;BME280;66809;52.974;-2.514;2023-02-17T05:35:47;1008.2696872736399;;;6.877407536620258;48.5613306603453
46382;BME280;66809;52.974;-2.514;2023-02-17T05:37:47;1008.2527824908614;;;6.888173287158012;48.590566036904484
46382;BME280;66809;52.974;-2.514;2023-02-17T05:39:48;1008.2382791724999;;;6.892741487856364;48.61909674718738
46382;BME280;66809;52.974;-2.514;2023-02-17T05:41:47;1008.2236044480529;;;6.892799504666856;48.64951478199381
46382;BME280;66809;52.974;-2.514;2023-02-17T05:43:47;1008.2100039854453;;;6.8913508918561925;48.67892605396853
46382;BME280;66809;52.974;-2.514;2023-02-17T05:45:47;1008.1990170008859;;;6.888929852190372;48.70989639500008
46382;BME280;66809;52.974;-2.514;2023-02-17T05:47:47;1008.1910410297883;;;6.899162530282641;48.740571701132644
46382;BME280;66809;52.974;-2.514;2023-02-17T05:49:47;1008.1883947167764;;;6.893683213371716;48.77413782628485
46382;BME280;66809;52.974;-2.514;2023-02-17T05:51:47;1008.1918533546198;;;6.89062117353009;48.794889477421194
46382;BME280;66809;52.974;-2.514;2023-02-17T05:53:48;1008.1985543510478;;;6.89593852058277;48.80348493527918
46382;BME280;66809;52.974;-2.514;2023-02-17T05:55:47;1008.2106694994171;;;6.903776647869793;48.80853948263757
46382;BME280;66809;52.974;-2.514;2023-02-17T05:57:47;1008.22215086088;;;6.909592028267811;48.81328635832839
46382;BME280;66809;52.974;-2.514;2023-02-17T05:59:48;1008.2326567772931;;;6.913912472590846;48.816988953615926
46382;BME280;66809;52.974;-2.514;2023-02-17T06:01:47;1008.2424625777056;;;6.923210911306243;48.81583553317032
46382;BME280;66809;52.974;-2.514;2023-02-17T06:03:47;1008.2494660600279;;;6.928419501185767;48.817015871214174
46382;BME280;66809;52.974;-2.514;2023-02-17T06:05:47;1008.2556329486903;;;6.933276823051249;48.813566093190396
46382;BME280;66809;52.974;-2.514;2023-02-17T06:07:48;1008.2621382118131;;;6.940095781240726;48.80068617929135
46382;BME280;66809;52.974;-2.514;2023-02-17T06:09:47;1008.2705911576162;;;6.949494204820727;48.779850000359446
46382;BME280;66809;52.974;-2.514;2023-02-17T06:11:48;1008.2811011208763;;;6.96904543094519;48.76230478007097
46382;BME280;66809;52.974;-2.514;2023-02-17T06:13:47;1008.2910634825749;;;6.975559872228618;48.74986520093527
46382;BME280;66809;52.974;-2.514;2023-02-17T06:15:47;1008.3029647064102;;;6.985465117239018;48.744676069292375
46382;BME280;66809;52.974;-2.514;2023-02-17T06:17:47;1008.3137984049431;;;6.993515757707544;48.72971870808965
46382;BME280;66809;52.974;-2.514;2023-02-17T06:19:48;1008.3219454011099;;;7.001922313324905;48.70357622169545
46382;BME280;66809;52.974;-2.514;2023-02-17T06:21:47;1008.3232546260143;;;6.997817245679953;48.68761146272881
46382;BME280;66809;52.974;-2.514;2023-02-17T06:23:47;1008.326798285402;;;7.00562846565371;48.66223523027565
46382;BME280;66809;52.974;-2.514;2023-02-17T06:25:48;1008.333695754802;;;7.010289379465589;48.63556441220507
46382;BME280;66809;52.974;-2.514;2023-02-17T06:27:47;1008.3440553572904;;;7.000893652137859;48.60969982714342
46382;BME280;66809;52.974;-2.514;2023-02-17T06:29:47;1008.3574186081958;;;7.006430566581572;48.58065109565408
46382;BME280;66809;52.974;-2.514;2023-02-17T06:31:47;1008.3749869097333;;;7.01449729390647;48.54856998093632
46382;BME280;66809;52.974;-2.514;2023-02-17T06:33:48;1008.3964640110985;;;7.019343120083563;48.50329516260701
46382;BME280;66809;52.974;-2.514;2023-02-17T06:35:48;1008.4179859664639;;;7.032687280713763;48.45143368505101
46382;BME280;66809;52.974;-2.514;2023-02-17T06:37:47;1008.4411302927132;;;7.046009593880588;48.388097274318994
46382;BME280;66809;52.974;-2.514;2023-02-17T06:39:47;1008.4667490634527;;;7.066765129403743;48.321001516806774
46382;BME280;66809;52.974;-2.514;2023-02-17T06:41:47;1008.4932894555675;;;7.093204760108834;48.248609557498625
46382;BME280;66809;52.974;-2.514;2023-02-17T06:43:47;1008.5155588507524;;;7.116778733390188;48.16245345926894
46382;BME280;66809;52.974;-2.514;2023-02-17T06:45:47;1008.5442646316341;;;7.140348739619;48.082184585409074
46382;BME280;66809;52.974;-2.514;2023-02-17T06:47:48;1008.5688046526682;;;7.155762896009979;48.00715201825208
46382;BME280;66809;52.974;-2.514;2023-02-17T06:49:47;1008.58739541834;;;7.182112534512535;47.92356287271684
46382;BME280;66809;52.974;-2.514;2023-02-17T06:51:47;1008.6030351372739;;;7.19663457792875;47.85011417081581
46382;BME280;66809;52.974;-2.514;2023-02-17T06:53:48;1008.616494692506;;;7.207508084694686;47.781726814630595
46382;BME280;66809;52.974;-2.514;2023-02-17T06:55:47;1008.6324486619853;;;7.218656307223373;47.71387070394678
46382;BME280;66809;52.974;-2.514;2023-02-17T06:57:47;1008.6533689869863;;;7.221370383134375;47.66054301165359
46382;BME280;66809;52.974;-2.514;2023-02-17T06:59:47;1008.6749010875199;;;7.225826533350337;47.610499098779954
46382;BME280;66809;52.974;-2.514;2023-02-17T07:01:49;1008.6955385038997;;;7.226865396637137;47.55821554897507
46382;BME280;66809;52.974;-2.514;2023-02-17T07:03:48;1008.7209297238909;;;7.235272389227879;47.50221776577559
46382;BME280;66809;52.974;-2.514;2023-02-17T07:05:47;1008.7480582460379;;;7.234318065190005;47.443745888985404
46382;BME280;66809;52.974;-2.514;2023-02-17T07:07:47;1008.7748880755418;;;7.231286261063152;47.38670911199405
46382;BME280;66809;52.974;-2.514;2023-02-17T07:09:48;1008.7990791350646;;;7.238588874808718;47.324623248780455
46382;BME280;66809;52.974;-2.514;2023-02-17T07:11:47;1008.8204070684155;;;7.237915909165681;47.25163872605604
46382;BME280;66809;52.974;-2.514;2023-02-17T07:13:47;1008.8414672850972;;;7.246206000061743;47.17080247443118